Decoded Metar for UKKM (GOSTOMEL in UKRAINE) (IATA:N/A) | Meteo·Mobile Aviation Weather
aviador You're here:

UKKM Decoded Metar

GOSTOMEL in UKRAINE
Report Time2019-07-19 18:00:00
UTC Time2019-07-19 18:33:28
Flight Rules vfr VFR
Wind230° at 4 kt
W.Decomp.*RWY 15: 1.0 kt HW 3.9 kt RCW
Visibility9999 m
Phenomena:N/A
Clouds:N/A
Expected CloudBase > 4,800 ft AGL from Temp-Dew spread
CeilingNone
Temp22°C (ISA +8)
Dew Point10°C (47% RH)
AAT20.6°C
QNH1015 hPa
Density Alt1,549 ft
Elevation515 ft
Report Wrong Elevation
Raw Report
UKKM 191800Z 23002MPS CAVOK 22/10 Q1015 R33/CLRD70 NOSIG=

Extra information for UKKM:More info

Metar Taf Metar & Taf Last 4 Metars F.Rules Stats Wind Profile Meteogram Temp Stats Airport Information Weather charts Add Link Nearby VenuesMetar ALERT Operation Metar Decoded Social comments